Time;durP1;ratioP1;P1;durP2;ratioP2;P2;SDS_P1;SDS_P2;PMS_P1;PMS_P2;Temp;Humidity;BMP_temperature;BMP_pressure;BME280_temperature;BME280_humidity;BME280_pressure;Samples;Min_cycle;Max_cycle;Signal;HPM_P1;HPM_P2
2023/07/27 04:01:21;;;;;;;4.13;2.72;;;12.50;99.90;;;;;;5463172;23;20504;-71
2023/07/27 04:03:48;;;;;;;2.22;2.13;;;12.50;99.90;;;;;;4940575;29;20237;-70
2023/07/27 04:06:14;;;;;;;2.85;2.60;;;12.50;99.90;;;;;;4939133;29;20229;-70
2023/07/27 04:08:41;;;;;;;2.08;1.98;;;12.50;99.90;;;;;;4931150;29;20210;-69
2023/07/27 04:11:08;;;;;;;2.35;2.25;;;12.50;99.90;;;;;;4928350;29;20226;-70
2023/07/27 04:13:34;;;;;;;3.30;2.35;;;12.50;99.90;;;;;;4917837;29;20634;-70
2023/07/27 04:16:01;;;;;;;3.10;2.83;;;12.60;99.90;;;;;;4916031;29;20227;-71
2023/07/27 04:18:29;;;;;;;2.70;2.50;;;12.60;99.90;;;;;;4911831;29;20474;-70
2023/07/27 04:20:56;;;;;;;4.25;3.95;;;12.60;99.90;;;;;;4911025;29;20250;-71
2023/07/27 04:23:23;;;;;;;3.20;2.92;;;12.60;99.90;;;;;;4915097;29;20217;-71
2023/07/27 04:25:49;;;;;;;2.17;1.98;;;12.60;99.90;;;;;;4915246;29;20206;-71
2023/07/27 04:28:16;;;;;;;2.05;1.85;;;12.70;99.90;;;;;;4916190;29;20218;-71
2023/07/27 04:30:44;;;;;;;2.28;2.28;;;12.60;99.90;;;;;;4905231;29;20298;-70
2023/07/27 04:33:10;;;;;;;2.60;2.35;;;12.60;99.90;;;;;;4914727;29;20214;-70
2023/07/27 04:35:38;;;;;;;2.40;2.30;;;12.60;99.90;;;;;;4918328;29;20322;-71
2023/07/27 04:38:05;;;;;;;2.27;2.17;;;12.70;99.90;;;;;;4920517;29;20206;-71
2023/07/27 04:40:32;;;;;;;3.30;2.70;;;12.80;99.90;;;;;;4917899;29;20490;-70
2023/07/27 04:42:59;;;;;;;2.00;1.90;;;12.80;99.90;;;;;;4915906;29;20466;-71
2023/07/27 04:45:26;;;;;;;3.43;3.20;;;12.90;99.90;;;;;;4915698;29;20479;-72
2023/07/27 04:47:52;;;;;;;2.00;1.90;;;12.90;99.90;;;;;;4918165;29;21191;-72
2023/07/27 04:50:19;;;;;;;2.80;2.60;;;12.90;99.90;;;;;;4915853;29;20474;-71
2023/07/27 04:52:47;;;;;;;2.73;2.53;;;13.00;99.90;;;;;;4914211;29;20475;-71
2023/07/27 04:55:14;;;;;;;2.83;2.63;;;13.10;99.90;;;;;;4915935;29;20478;-71
2023/07/27 04:57:41;;;;;;;2.93;2.70;;;13.10;99.90;;;;;;4916467;29;20498;-71
2023/07/27 05:00:09;;;;;;;3.40;2.87;;;13.30;99.90;;;;;;4911738;29;20470;-71
2023/07/27 05:02:35;;;;;;;4.33;3.93;;;13.40;99.90;;;;;;4912173;29;20501;-71
2023/07/27 05:05:02;;;;;;;3.03;2.63;;;13.40;99.90;;;;;;4909046;29;20482;-72
2023/07/27 05:07:29;;;;;;;3.40;3.20;;;13.40;99.90;;;;;;4907666;29;20471;-71
2023/07/27 05:09:57;;;;;;;4.63;4.23;;;13.50;99.90;;;;;;4915749;29;20479;-71
2023/07/27 05:12:23;;;;;;;2.50;2.40;;;13.50;99.90;;;;;;4916205;29;20855;-71
2023/07/27 05:14:51;;;;;;;3.03;2.83;;;13.50;99.90;;;;;;4913636;29;20549;-71
2023/07/27 05:17:18;;;;;;;3.40;3.20;;;13.50;99.90;;;;;;4910988;29;20578;-71
2023/07/27 05:19:44;;;;;;;3.93;3.00;;;13.50;99.90;;;;;;4915630;29;20497;-71
2023/07/27 05:22:11;;;;;;;3.17;2.90;;;13.50;99.90;;;;;;4911918;29;20497;-71
2023/07/27 05:24:39;;;;;;;2.93;2.53;;;13.50;99.90;;;;;;4915580;29;20467;-71
2023/07/27 05:27:07;;;;;;;4.40;2.43;;;13.60;99.90;;;;;;4910887;29;20462;-71
2023/07/27 05:29:34;;;;;;;4.20;2.70;;;13.70;99.90;;;;;;4903246;29;20474;-72
2023/07/27 05:32:01;;;;;;;3.17;2.87;;;13.70;99.90;;;;;;4910102;29;20532;-72
2023/07/27 05:34:27;;;;;;;4.10;3.10;;;13.70;99.90;;;;;;4916122;29;20472;-71
2023/07/27 05:36:54;;;;;;;4.33;3.93;;;13.80;99.90;;;;;;4914889;29;20530;-71
2023/07/27 05:39:21;;;;;;;4.07;2.77;;;13.90;99.90;;;;;;4912333;29;20482;-72
2023/07/27 05:41:48;;;;;;;2.70;2.50;;;13.90;99.90;;;;;;4910089;29;20514;-72
2023/07/27 05:44:16;;;;;;;1.70;1.70;;;13.90;99.90;;;;;;4914002;29;20835;-71
2023/07/27 05:46:42;;;;;;;3.07;2.87;;;14.10;99.90;;;;;;4915634;29;20467;-71
2023/07/27 05:49:09;;;;;;;3.83;3.43;;;14.20;99.90;;;;;;4916120;29;20490;-71
2023/07/27 05:51:36;;;;;;;8.93;2.90;;;14.30;99.90;;;;;;4915862;29;20494;-71
2023/07/27 05:54:03;;;;;;;2.63;2.33;;;14.50;99.90;;;;;;4915827;29;20473;-71
2023/07/27 05:56:29;;;;;;;3.20;3.00;;;14.50;99.90;;;;;;4915132;29;20490;-72
2023/07/27 05:58:56;;;;;;;1.93;1.93;;;14.50;99.90;;;;;;4915348;29;20475;-72
2023/07/27 06:01:24;;;;;;;4.13;3.77;;;14.50;99.90;;;;;;4911628;29;20929;-71
2023/07/27 06:03:51;;;;;;;4.53;2.90;;;14.50;99.90;;;;;;4910617;29;20565;-72
2023/07/27 06:06:18;;;;;;;2.40;2.27;;;14.50;99.90;;;;;;4903151;29;20467;-72
2023/07/27 06:08:44;;;;;;;1.70;1.70;;;14.50;99.90;;;;;;4915645;29;21054;-73
2023/07/27 06:11:11;;;;;;;5.60;3.00;;;14.70;99.90;;;;;;4914920;29;20502;-73
2023/07/27 06:13:38;;;;;;;2.50;2.40;;;14.70;99.90;;;;;;4915441;29;20470;-72
2023/07/27 06:16:05;;;;;;;11.43;3.50;;;14.80;99.90;;;;;;4912450;29;20517;-72
2023/07/27 06:18:33;;;;;;;3.67;3.47;;;14.90;99.90;;;;;;4913393;29;20481;-73
2023/07/27 06:21:00;;;;;;;2.57;2.13;;;14.90;99.90;;;;;;4905902;29;20490;-73
2023/07/27 06:23:27;;;;;;;2.47;2.37;;;15.00;99.90;;;;;;4914209;29;20602;-73
2023/07/27 06:25:54;;;;;;;2.43;2.23;;;15.00;99.90;;;;;;4906832;29;20973;-73
2023/07/27 06:28:21;;;;;;;2.13;1.83;;;15.10;99.90;;;;;;4909158;29;20478;-72
2023/07/27 06:30:48;;;;;;;2.40;2.30;;;15.10;99.90;;;;;;4909683;29;20574;-72
2023/07/27 06:33:15;;;;;;;1.77;1.77;;;15.10;99.90;;;;;;4913924;29;20478;-72
2023/07/27 06:35:43;;;;;;;2.40;2.20;;;15.10;99.90;;;;;;4914544;29;20482;-73
2023/07/27 06:38:10;;;;;;;3.00;2.90;;;15.20;99.90;;;;;;4912485;29;20491;-73
2023/07/27 06:40:37;;;;;;;2.43;2.33;;;15.20;99.90;;;;;;4910884;29;20586;-72
2023/07/27 06:43:03;;;;;;;3.07;2.90;;;15.30;99.90;;;;;;4905330;29;20549;-72
2023/07/27 06:45:30;;;;;;;2.13;2.13;;;15.30;99.90;;;;;;4911445;29;20929;-72
2023/07/27 06:47:57;;;;;;;2.77;2.43;;;15.30;99.90;;;;;;4915021;29;20462;-73
2023/07/27 06:50:23;;;;;;;3.90;2.60;;;15.30;99.90;;;;;;4914299;29;20521;-73
2023/07/27 06:52:51;;;;;;;3.30;3.10;;;15.40;99.90;;;;;;4914309;29;20474;-72
2023/07/27 06:55:18;;;;;;;1.80;1.50;;;15.40;99.90;;;;;;4914334;29;20549;-70
2023/07/27 06:57:46;;;;;;;2.50;2.40;;;15.40;99.90;;;;;;4912960;29;20491;-70
2023/07/27 07:00:13;;;;;;;2.67;2.47;;;15.40;99.90;;;;;;4909207;29;20471;-71
2023/07/27 07:02:40;;;;;;;4.53;2.70;;;15.50;99.90;;;;;;4907100;29;20526;-70
2023/07/27 07:05:07;;;;;;;2.00;2.00;;;15.50;99.90;;;;;;4911562;29;20477;-71
2023/07/27 07:07:34;;;;;;;2.63;2.53;;;15.50;99.90;;;;;;4911810;29;20470;-70
2023/07/27 07:10:02;;;;;;;2.80;2.60;;;15.50;99.90;;;;;;4910184;29;20553;-72
2023/07/27 07:12:29;;;;;;;2.60;2.50;;;15.50;99.90;;;;;;4914170;29;20862;-71
2023/07/27 07:14:56;;;;;;;3.80;3.00;;;15.50;99.90;;;;;;4912153;29;21127;-71
2023/07/27 07:17:23;;;;;;;2.40;2.30;;;15.60;99.90;;;;;;4912607;29;20491;-71
2023/07/27 07:19:49;;;;;;;3.10;2.80;;;15.50;99.90;;;;;;4914420;29;20845;-71
2023/07/27 07:22:16;;;;;;;3.83;2.70;;;15.60;99.90;;;;;;4913489;29;20521;-72
2023/07/27 07:24:43;;;;;;;2.53;2.53;;;15.60;99.90;;;;;;4913233;29;20475;-71
2023/07/27 07:27:11;;;;;;;3.20;2.87;;;15.60;99.90;;;;;;4913901;29;20470;-71
2023/07/27 07:29:37;;;;;;;2.63;2.53;;;15.60;99.90;;;;;;4911790;29;20957;-72
2023/07/27 07:32:05;;;;;;;2.03;2.00;;;15.60;99.90;;;;;;4912397;29;20922;-70
2023/07/27 07:34:33;;;;;;;2.40;2.20;;;15.60;99.90;;;;;;4910624;29;20470;-71
2023/07/27 07:37:00;;;;;;;2.57;2.40;;;15.50;99.90;;;;;;4913341;29;20522;-71
2023/07/27 07:39:26;;;;;;;2.30;2.20;;;15.40;99.90;;;;;;4912609;29;20474;-71
2023/07/27 07:41:53;;;;;;;2.33;2.20;;;15.40;99.90;;;;;;4912563;29;20497;-71
2023/07/27 07:44:21;;;;;;;2.43;2.23;;;15.50;99.90;;;;;;4909652;29;20478;-72
2023/07/27 07:46:48;;;;;;;2.97;2.10;;;15.50;99.90;;;;;;4912543;29;20544;-72
2023/07/27 07:49:15;;;;;;;6.20;2.50;;;15.50;99.90;;;;;;4906778;29;20479;-72
2023/07/27 07:51:42;;;;;;;2.50;1.87;;;15.60;99.90;;;;;;4914082;29;20490;-72
2023/07/27 07:54:09;;;;;;;1.97;1.90;;;15.60;99.90;;;;;;4913984;29;20469;-72
2023/07/27 07:56:37;;;;;;;3.00;2.90;;;15.70;99.90;;;;;;4914106;29;20494;-72
2023/07/27 07:59:04;;;;;;;3.90;2.87;;;15.70;99.90;;;;;;4907528;29;20496;-72
2023/07/27 08:01:32;;;;;;;5.93;2.70;;;15.70;99.90;;;;;;4911754;29;20841;-71
2023/07/27 08:03:58;;;;;;;2.80;2.63;;;15.70;99.90;;;;;;4912406;29;20478;-72
2023/07/27 08:06:25;;;;;;;2.33;2.23;;;15.60;99.90;;;;;;4908418;29;20503;-72
2023/07/27 08:08:52;;;;;;;2.50;2.40;;;15.50;99.90;;;;;;4904756;29;20468;-71
2023/07/27 08:11:19;;;;;;;1.73;1.73;;;15.40;99.90;;;;;;4905900;29;20495;-71
2023/07/27 08:13:46;;;;;;;3.57;3.00;;;15.30;99.90;;;;;;4908241;29;20476;-70
2023/07/27 08:16:13;;;;;;;1.97;1.97;;;15.20;99.90;;;;;;4908256;29;20529;-73
2023/07/27 08:18:41;;;;;;;3.23;2.30;;;15.10;99.90;;;;;;4913965;29;20497;-72
2023/07/27 08:21:08;;;;;;;2.47;2.37;;;15.00;99.90;;;;;;4913749;29;20864;-72
2023/07/27 08:23:35;;;;;;;4.87;3.13;;;15.00;99.90;;;;;;4905652;29;20463;-71
2023/07/27 08:26:07;;;;;;;3.37;3.17;;;15.00;99.90;;;;;;4895649;29;20467;-71
2023/07/27 08:28:33;;;;;;;2.00;1.90;;;15.00;99.90;;;;;;4896481;29;20467;-72
2023/07/27 08:31:02;;;;;;;2.60;2.40;;;15.20;99.90;;;;;;4908821;29;20490;-71
2023/07/27 08:33:29;;;;;;;2.77;2.57;;;15.30;99.90;;;;;;4911357;29;20474;-72
2023/07/27 08:35:58;;;;;;;3.47;3.37;;;15.40;99.90;;;;;;4913712;29;20469;-70
2023/07/27 08:38:24;;;;;;;4.17;3.87;;;15.50;99.90;;;;;;4902150;29;21084;-70
2023/07/27 08:40:55;;;;;;;3.43;2.10;;;15.60;99.90;;;;;;4913707;29;20997;-70
2023/07/27 08:43:25;;;;;;;2.60;2.50;;;15.70;99.90;;;;;;4915540;29;20997;-70
2023/07/27 08:45:53;;;;;;;2.30;2.20;;;15.90;99.90;;;;;;4910777;29;20467;-70
2023/07/27 08:48:21;;;;;;;4.00;3.57;;;16.00;99.90;;;;;;4914230;29;20470;-70
2023/07/27 08:50:48;;;;;;;2.93;2.83;;;16.10;99.90;;;;;;4899939;29;20514;-71
2023/07/27 08:53:17;;;;;;;2.67;2.57;;;16.10;99.90;;;;;;4913081;29;20523;-69
2023/07/27 08:55:43;;;;;;;3.07;2.87;;;16.10;99.90;;;;;;4913565;29;20950;-70
2023/07/27 08:58:11;;;;;;;1.73;1.73;;;16.10;99.90;;;;;;4913444;29;21102;-71
2023/07/27 09:00:39;;;;;;;2.97;2.57;;;16.10;99.90;;;;;;4916105;29;20517;-72
2023/07/27 09:03:07;;;;;;;3.73;3.43;;;16.20;99.90;;;;;;4910609;29;20474;-71
2023/07/27 09:05:41;;;;;;;4.00;3.67;;;16.20;99.90;;;;;;4906236;29;20478;-72
2023/07/27 09:08:08;;;;;;;5.40;3.57;;;16.30;99.90;;;;;;4916585;29;20783;-72
2023/07/27 09:10:37;;;;;;;2.80;2.60;;;16.20;99.90;;;;;;4908941;29;20597;-71
2023/07/27 09:13:04;;;;;;;3.70;3.50;;;16.10;99.90;;;;;;4918864;29;20553;-72
2023/07/27 09:15:31;;;;;;;2.60;2.50;;;16.10;99.90;;;;;;4915982;29;20471;-72
2023/07/27 09:18:01;;;;;;;2.83;2.73;;;16.00;99.90;;;;;;4916837;29;20504;-72
2023/07/27 09:20:28;;;;;;;4.30;3.93;;;16.00;99.90;;;;;;4916784;29;20481;-72
2023/07/27 09:22:55;;;;;;;2.70;2.70;;;15.90;99.90;;;;;;4910697;29;20600;-72
2023/07/27 09:25:22;;;;;;;3.10;2.90;;;15.90;99.90;;;;;;4913038;29;20463;-72
2023/07/27 09:27:54;;;;;;;2.53;2.37;;;15.80;99.90;;;;;;4907994;29;20466;-72
2023/07/27 09:30:22;;;;;;;3.10;3.00;;;15.70;99.90;;;;;;4914107;29;20553;-72
2023/07/27 09:32:49;;;;;;;2.40;2.30;;;15.70;99.90;;;;;;4909318;29;20455;-71
2023/07/27 09:35:17;;;;;;;2.30;2.30;;;15.60;99.90;;;;;;4915189;29;20474;-71
2023/07/27 09:37:45;;;;;;;3.63;3.33;;;15.60;99.90;;;;;;4909448;29;20517;-73
2023/07/27 09:40:13;;;;;;;2.80;2.70;;;15.60;99.90;;;;;;4907297;29;20502;-72
2023/07/27 09:42:42;;;;;;;3.37;3.07;;;15.60;99.90;;;;;;4910894;29;20467;-72
2023/07/27 09:45:10;;;;;;;3.33;3.10;;;15.60;99.90;;;;;;4914628;29;20538;-72
2023/07/27 09:47:37;;;;;;;2.57;2.47;;;15.60;99.90;;;;;;4907692;29;20835;-73
2023/07/27 09:50:05;;;;;;;3.43;3.23;;;15.60;99.90;;;;;;4915352;29;20463;-74
2023/07/27 09:52:32;;;;;;;3.50;3.30;;;15.70;99.90;;;;;;4919069;29;20497;-72
2023/07/27 09:54:59;;;;;;;2.00;1.90;;;15.70;99.90;;;;;;4914430;29;20497;-69
2023/07/27 09:57:27;;;;;;;3.10;2.90;;;15.80;99.90;;;;;;4912454;29;20483;-69
2023/07/27 09:59:54;;;;;;;3.80;3.50;;;15.80;99.90;;;;;;4913632;29;20762;-70
2023/07/27 10:02:23;;;;;;;2.83;2.67;;;15.80;99.90;;;;;;4912692;29;20533;-70
2023/07/27 10:04:50;;;;;;;2.93;2.80;;;15.90;99.90;;;;;;4915022;29;20482;-70
2023/07/27 10:07:19;;;;;;;3.80;3.50;;;15.90;99.90;;;;;;4909784;29;20902;-70
2023/07/27 10:09:46;;;;;;;3.70;3.57;;;16.00;99.90;;;;;;4901511;29;20989;-70
2023/07/27 10:12:27;;;;;;;4.60;4.20;;;16.00;99.90;;;;;;4914008;29;20494;-70
2023/07/27 10:17:40;;;;;;;4.47;3.50;;;16.10;99.90;;;;;;4894357;29;20487;-71
2023/07/27 10:20:21;;;;;;;3.47;3.33;;;15.90;99.90;;;;;;4896340;29;20455;-71
2023/07/27 10:22:52;;;;;;;2.93;2.83;;;16.00;99.90;;;;;;4897087;29;20546;-72
2023/07/27 10:25:18;;;;;;;3.53;3.27;;;16.10;99.90;;;;;;4892276;29;20510;-71
2023/07/27 10:27:55;;;;;;;6.50;3.87;;;16.10;99.90;;;;;;4891738;29;20479;-70
2023/07/27 10:30:22;;;;;;;3.87;3.67;;;16.30;99.90;;;;;;4889989;29;20894;-71
2023/07/27 10:33:16;;;;;;;3.13;2.97;;;16.30;99.90;;;;;;4896459;29;20892;-71
2023/07/27 10:36:02;;;;;;;3.17;2.97;;;16.20;99.90;;;;;;4893658;29;20497;-72
2023/07/27 10:38:32;;;;;;;5.13;4.33;;;16.20;99.90;;;;;;4890964;29;20491;-71
2023/07/27 10:41:12;;;;;;;3.73;3.53;;;16.30;99.90;;;;;;4894725;29;20550;-71
2023/07/27 10:43:59;;;;;;;3.80;3.57;;;16.30;99.90;;;;;;4892231;29;20633;-71
2023/07/27 10:46:26;;;;;;;4.47;4.10;;;16.40;99.90;;;;;;4892656;29;21093;-69
2023/07/27 10:49:09;;;;;;;15.70;14.03;;;16.50;99.90;;;;;;4896468;29;20482;-70
2023/07/27 10:51:35;;;;;;;5.70;5.40;;;16.50;99.90;;;;;;4896411;29;20813;-71
2023/07/27 10:54:02;;;;;;;7.10;6.67;;;16.50;99.90;;;;;;4895815;29;20471;-70
2023/07/27 10:56:30;;;;;;;6.10;5.70;;;16.60;99.90;;;;;;4895814;29;20484;-73
2023/07/27 10:58:59;;;;;;;3.23;3.03;;;16.70;99.90;;;;;;4895012;29;20558;-70
2023/07/27 11:01:25;;;;;;;5.13;4.10;;;16.80;99.90;;;;;;4889642;29;20476;-70
2023/07/27 11:03:55;;;;;;;4.60;4.40;;;16.80;99.90;;;;;;4892716;29;20495;-69
2023/07/27 11:06:23;;;;;;;4.07;3.87;;;16.90;99.90;;;;;;4895813;29;20491;-70
2023/07/27 11:08:50;;;;;;;6.03;5.47;;;17.00;99.90;;;;;;4895662;29;20464;-70
2023/07/27 11:11:18;;;;;;;3.70;3.50;;;17.20;99.90;;;;;;4895529;29;20534;-69
2023/07/27 11:13:45;;;;;;;9.40;8.60;;;17.40;99.90;;;;;;4889090;29;20471;-71
2023/07/27 11:16:14;;;;;;;5.13;4.50;;;17.50;99.90;;;;;;4894601;29;21030;-70
2023/07/27 11:18:41;;;;;;;5.10;4.67;;;17.70;99.90;;;;;;4895774;29;20494;-71
2023/07/27 11:21:08;;;;;;;3.80;3.37;;;17.70;99.90;;;;;;4890050;29;20483;-71
2023/07/27 11:23:42;;;;;;;4.80;4.40;;;17.70;99.90;;;;;;4889890;29;20494;-70
2023/07/27 11:26:09;;;;;;;6.07;5.57;;;17.80;99.90;;;;;;4892548;29;20582;-70
2023/07/27 11:28:36;;;;;;;3.87;3.67;;;17.90;99.90;;;;;;4893553;29;20475;-70
2023/07/27 11:31:06;;;;;;;4.93;4.53;;;17.90;99.90;;;;;;4883084;29;20843;-70
2023/07/27 11:33:33;;;;;;;3.93;3.73;;;18.00;99.90;;;;;;4892915;29;20476;-70
2023/07/27 11:36:00;;;;;;;3.60;3.50;;;18.00;99.90;;;;;;4895186;29;20483;-71
2023/07/27 11:38:27;;;;;;;4.07;3.80;;;17.90;99.90;;;;;;4895527;29;20495;-70
2023/07/27 11:40:57;;;;;;;4.03;3.73;;;17.80;99.90;;;;;;4893166;29;20551;-71
2023/07/27 11:43:24;;;;;;;3.27;3.17;;;17.70;99.90;;;;;;4893582;29;20467;-71
2023/07/27 11:45:54;;;;;;;4.40;4.10;;;17.60;99.90;;;;;;4891086;29;20495;-71
2023/07/27 11:48:26;;;;;;;2.40;2.30;;;17.60;99.90;;;;;;4888456;29;20479;-71
2023/07/27 11:50:55;;;;;;;3.67;3.30;;;17.60;99.90;;;;;;4891708;29;20975;-70
2023/07/27 11:53:24;;;;;;;1.63;1.63;;;17.60;99.90;;;;;;4892835;29;20562;-69
2023/07/27 11:55:51;;;;;;;4.63;3.10;;;17.60;99.90;;;;;;4889110;29;20551;-70
2023/07/27 11:58:19;;;;;;;2.40;2.30;;;17.60;99.90;;;;;;4889765;29;20491;-70
2023/07/27 12:00:50;;;;;;;2.83;2.63;;;17.70;99.90;;;;;;4894378;29;20969;-70
2023/07/27 12:03:18;;;;;;;1.80;1.70;;;17.70;99.90;;;;;;4894987;29;20467;-71
2023/07/27 12:05:45;;;;;;;1.60;1.50;;;17.70;99.90;;;;;;4890603;29;20625;-71
2023/07/27 12:08:16;;;;;;;2.10;2.00;;;17.80;99.90;;;;;;4894655;29;20495;-69
2023/07/27 12:10:51;;;;;;;1.50;1.50;;;17.90;99.90;;;;;;4895222;29;20471;-71
2023/07/27 12:13:21;;;;;;;1.60;1.60;;;18.10;99.90;;;;;;4893193;29;20479;-70
2023/07/27 12:15:55;;;;;;;2.03;1.93;;;18.10;99.90;;;;;;4884397;29;20857;-71
2023/07/27 12:18:22;;;;;;;1.40;1.40;;;17.90;99.90;;;;;;4894223;29;20558;-70
2023/07/27 12:20:48;;;;;;;0.70;0.70;;;17.80;99.90;;;;;;4889158;29;20583;-71
2023/07/27 12:23:15;;;;;;;1.73;1.63;;;17.60;99.90;;;;;;4893675;29;20471;-71
2023/07/27 12:25:42;;;;;;;1.43;1.33;;;17.50;99.90;;;;;;4895483;29;20503;-71
2023/07/27 12:28:09;;;;;;;1.63;1.63;;;17.40;99.90;;;;;;4898319;29;20459;-70
2023/07/27 12:30:37;;;;;;;1.10;1.10;;;17.30;99.90;;;;;;4898219;29;20499;-71
2023/07/27 12:33:04;;;;;;;1.30;1.20;;;17.20;99.90;;;;;;4898646;29;20471;-70
2023/07/27 12:35:30;;;;;;;1.20;1.20;;;17.20;99.90;;;;;;4898163;29;20491;-70
2023/07/27 12:37:58;;;;;;;2.20;2.17;;;17.10;99.90;;;;;;4898709;29;20487;-69
2023/07/27 12:40:25;;;;;;;0.60;0.60;;;17.00;99.90;;;;;;4894024;29;20479;-71
2023/07/27 12:42:52;;;;;;;0.70;0.70;;;16.90;99.90;;;;;;4893191;29;20486;-68
2023/07/27 12:45:19;;;;;;;1.67;1.60;;;16.90;99.90;;;;;;4896653;29;20526;-71
2023/07/27 12:47:48;;;;;;;1.03;1.03;;;16.90;99.90;;;;;;4894854;29;20480;-70
2023/07/27 12:50:15;;;;;;;2.10;1.10;;;17.00;99.90;;;;;;4896081;29;20471;-71
2023/07/27 12:52:43;;;;;;;1.80;1.17;;;17.20;99.90;;;;;;4898861;29;20527;-72
2023/07/27 12:55:12;;;;;;;0.80;0.73;;;17.30;99.90;;;;;;4900022;29;20924;-71
2023/07/27 12:57:39;;;;;;;0.90;0.90;;;17.20;99.90;;;;;;4899791;29;20839;-71
2023/07/27 13:00:08;;;;;;;1.20;1.20;;;17.30;99.90;;;;;;4897814;29;20475;-72
2023/07/27 13:02:35;;;;;;;1.03;1.03;;;17.40;99.90;;;;;;4893163;29;20555;-72
2023/07/27 13:05:04;;;;;;;1.10;1.10;;;17.70;99.90;;;;;;4896841;29;20523;-71
2023/07/27 13:07:30;;;;;;;1.30;1.20;;;17.70;99.90;;;;;;4896894;29;20505;-72
2023/07/27 13:09:57;;;;;;;0.87;0.87;;;17.70;99.90;;;;;;4892101;29;20476;-72
2023/07/27 13:12:24;;;;;;;0.80;0.80;;;17.50;99.90;;;;;;4896261;29;20478;-72
2023/07/27 13:14:51;;;;;;;1.50;1.40;;;17.50;99.90;;;;;;4881435;29;20471;-72
2023/07/27 13:17:17;;;;;;;1.70;1.60;;;17.40;99.90;;;;;;4896064;29;20551;-70
2023/07/27 13:19:44;;;;;;;1.50;1.50;;;17.40;99.90;;;;;;4896844;29;20555;-72
2023/07/27 13:22:12;;;;;;;0.87;0.87;;;17.30;99.90;;;;;;4897864;29;20460;-71
2023/07/27 13:24:39;;;;;;;1.43;1.43;;;17.30;99.90;;;;;;4897204;29;20471;-71
2023/07/27 13:27:06;;;;;;;1.47;1.47;;;17.30;99.90;;;;;;4896844;29;20555;-72
2023/07/27 13:29:34;;;;;;;1.07;1.07;;;17.20;99.90;;;;;;4896926;29;20582;-71
2023/07/27 13:32:00;;;;;;;1.17;0.97;;;17.00;99.90;;;;;;4898038;29;20499;-71
2023/07/27 13:34:27;;;;;;;1.70;1.60;;;16.80;99.90;;;;;;4897814;29;20676;-72
2023/07/27 13:36:54;;;;;;;0.70;0.70;;;16.70;99.90;;;;;;4897444;29;20487;-72
2023/07/27 13:39:22;;;;;;;1.40;1.40;;;16.50;99.90;;;;;;4897008;29;20523;-71
2023/07/27 13:41:49;;;;;;;1.20;1.20;;;16.60;99.90;;;;;;4896151;29;20475;-72
2023/07/27 13:44:16;;;;;;;0.80;0.80;;;16.50;99.90;;;;;;4896987;29;20474;-72
2023/07/27 13:46:42;;;;;;;0.90;0.90;;;16.50;99.90;;;;;;4896958;29;20495;-72
2023/07/27 13:49:09;;;;;;;0.97;0.97;;;16.40;99.90;;;;;;4897366;29;20467;-72
2023/07/27 13:51:36;;;;;;;0.80;0.80;;;16.40;99.90;;;;;;4897053;29;20467;-72
2023/07/27 13:54:02;;;;;;;1.93;1.83;;;16.30;99.90;;;;;;4896911;29;20467;-71
2023/07/27 13:56:31;;;;;;;1.87;1.77;;;16.30;99.90;;;;;;4895736;29;20503;-72
2023/07/27 13:58:57;;;;;;;1.07;1.07;;;16.40;99.90;;;;;;4896312;29;20491;-72
2023/07/27 14:01:24;;;;;;;1.77;1.77;;;16.40;99.90;;;;;;4896476;29;20463;-73
2023/07/27 14:03:51;;;;;;;0.90;0.90;;;16.50;99.90;;;;;;4896925;29;20476;-72
2023/07/27 14:06:17;;;;;;;1.67;1.63;;;16.50;99.90;;;;;;4896557;29;20552;-70
2023/07/27 14:08:44;;;;;;;0.80;0.80;;;16.60;99.90;;;;;;4897134;29;20523;-71
2023/07/27 14:11:11;;;;;;;0.83;0.83;;;16.50;99.90;;;;;;4896234;29;20483;-70
2023/07/27 14:13:39;;;;;;;1.20;1.20;;;16.50;99.90;;;;;;4892656;29;20483;-71
2023/07/27 14:16:06;;;;;;;2.07;2.07;;;16.60;99.90;;;;;;4894706;29;20602;-72
2023/07/27 14:18:34;;;;;;;1.43;1.33;;;16.60;99.90;;;;;;4890371;29;20566;-71
2023/07/27 14:21:00;;;;;;;1.10;1.10;;;16.60;99.90;;;;;;4882217;29;20463;-71
2023/07/27 14:23:27;;;;;;;1.40;1.40;;;16.70;99.90;;;;;;4896719;29;20467;-71
2023/07/27 14:25:54;;;;;;;2.90;1.77;;;16.70;99.90;;;;;;4895753;29;20483;-72
2023/07/27 14:28:21;;;;;;;1.17;1.17;;;16.70;99.90;;;;;;4892753;29;20479;-72
2023/07/27 14:30:51;;;;;;;1.20;1.20;;;16.70;99.90;;;;;;4895692;29;20463;-71
2023/07/27 14:33:18;;;;;;;1.20;1.20;;;16.60;99.90;;;;;;4896638;29;20770;-72
2023/07/27 14:35:45;;;;;;;3.70;1.27;;;16.60;99.90;;;;;;4896241;29;20487;-72
2023/07/27 14:38:11;;;;;;;1.43;1.43;;;16.60;99.90;;;;;;4895779;29;20464;-71
2023/07/27 14:40:38;;;;;;;2.83;1.47;;;16.60;99.90;;;;;;4892410;29;20475;-72
2023/07/27 14:43:05;;;;;;;1.20;1.20;;;16.60;99.90;;;;;;4894976;29;20471;-72
2023/07/27 14:45:38;;;;;;;1.13;1.13;;;16.60;99.90;;;;;;4895031;29;20523;-72
2023/07/27 14:48:07;;;;;;;0.87;0.87;;;16.60;99.90;;;;;;4894872;29;20562;-72
2023/07/27 14:50:33;;;;;;;0.67;0.67;;;16.60;99.90;;;;;;4894045;29;20467;-72
2023/07/27 14:53:00;;;;;;;1.47;1.47;;;16.60;99.90;;;;;;4894448;29;20530;-71
2023/07/27 14:55:27;;;;;;;1.60;1.60;;;16.50;99.90;;;;;;4895764;29;20499;-72
2023/07/27 14:57:53;;;;;;;1.03;1.03;;;16.50;99.90;;;;;;4896424;29;20940;-72
2023/07/27 15:00:20;;;;;;;0.80;0.80;;;16.50;99.90;;;;;;4891241;29;20974;-72
2023/07/27 15:02:48;;;;;;;1.70;1.60;;;16.40;99.90;;;;;;4890326;29;20894;-71
2023/07/27 15:05:17;;;;;;;1.43;1.43;;;16.40;99.90;;;;;;4893978;29;20486;-72
2023/07/27 15:07:43;;;;;;;0.80;0.80;;;16.40;99.90;;;;;;4896055;29;20896;-72
2023/07/27 15:10:10;;;;;;;7.23;1.53;;;16.50;99.90;;;;;;4892596;29;20538;-71
2023/07/27 15:12:37;;;;;;;1.97;1.87;;;16.50;99.90;;;;;;4891957;29;20562;-72
2023/07/27 15:15:04;;;;;;;1.30;1.30;;;16.50;99.90;;;;;;4891598;29;20495;-71
2023/07/27 15:17:31;;;;;;;0.60;0.60;;;16.40;99.90;;;;;;4891551;29;20523;-71
2023/07/27 15:19:57;;;;;;;0.83;0.83;;;16.30;99.90;;;;;;4889297;29;20625;-72
2023/07/27 15:22:25;;;;;;;0.70;0.70;;;16.20;99.90;;;;;;4893833;29;20482;-71
2023/07/27 15:24:52;;;;;;;1.03;1.03;;;16.20;99.90;;;;;;4893265;29;20471;-71
2023/07/27 15:27:18;;;;;;;1.10;1.10;;;16.10;99.90;;;;;;4894375;29;20508;-71
2023/07/27 15:29:54;;;;;;;2.20;1.27;;;16.20;99.90;;;;;;4891109;29;20471;-70
2023/07/27 15:32:22;;;;;;;2.43;1.83;;;16.20;99.90;;;;;;4892926;29;20554;-70
2023/07/27 15:34:48;;;;;;;1.00;1.00;;;16.20;99.90;;;;;;4895241;29;20479;-71
2023/07/27 15:37:15;;;;;;;1.20;1.20;;;16.30;99.90;;;;;;4895849;29;20478;-70
2023/07/27 15:39:43;;;;;;;1.27;1.27;;;16.30;99.90;;;;;;4893290;29;20872;-71
2023/07/27 15:42:10;;;;;;;0.70;0.70;;;16.30;99.90;;;;;;4894837;29;20475;-69
2023/07/27 15:44:37;;;;;;;1.00;1.00;;;16.30;99.90;;;;;;4884485;29;20475;-70
2023/07/27 15:47:04;;;;;;;1.57;1.57;;;16.20;99.90;;;;;;4880441;29;20502;-70
2023/07/27 15:49:31;;;;;;;1.43;1.43;;;16.20;99.90;;;;;;4895450;29;20535;-70
2023/07/27 15:51:58;;;;;;;1.33;1.23;;;16.20;99.90;;;;;;4894546;29;20479;-70
2023/07/27 15:54:24;;;;;;;1.70;1.60;;;16.20;99.90;;;;;;4888699;29;20562;-70
2023/07/27 15:56:52;;;;;;;1.03;1.03;;;16.20;99.90;;;;;;4895197;29;20529;-70
2023/07/27 15:59:19;;;;;;;1.30;0.77;;;16.20;99.90;;;;;;4896185;29;20487;-70
2023/07/27 16:01:46;;;;;;;1.00;1.00;;;16.30;99.90;;;;;;4896514;29;20522;-70
2023/07/27 16:04:14;;;;;;;1.13;1.13;;;16.30;99.90;;;;;;4896975;29;20467;-70
2023/07/27 16:06:40;;;;;;;1.23;1.23;;;16.30;99.90;;;;;;4897411;29;20533;-71
2023/07/27 16:09:07;;;;;;;1.87;1.77;;;16.30;99.90;;;;;;4897359;29;20478;-70
2023/07/27 16:11:34;;;;;;;1.80;1.70;;;16.30;99.90;;;;;;4898602;29;20519;-70
2023/07/27 16:14:03;;;;;;;1.60;1.60;;;16.40;99.90;;;;;;4894855;29;20480;-70
2023/07/27 16:16:31;;;;;;;1.03;1.03;;;16.40;99.90;;;;;;4891490;29;20588;-71
2023/07/27 16:18:57;;;;;;;1.10;1.10;;;16.50;99.90;;;;;;4889073;29;20474;-69
2023/07/27 16:21:24;;;;;;;0.70;0.70;;;16.60;99.90;;;;;;4897774;29;20978;-71
2023/07/27 16:23:51;;;;;;;0.73;0.73;;;16.60;99.90;;;;;;4897947;29;20818;-69
2023/07/27 16:26:18;;;;;;;0.97;0.97;;;16.60;99.90;;;;;;4898089;29;20498;-69
2023/07/27 16:28:44;;;;;;;1.60;1.60;;;16.60;99.90;;;;;;4898859;29;20486;-69
2023/07/27 16:31:12;;;;;;;1.37;1.37;;;16.60;99.90;;;;;;4897016;29;20924;-69
2023/07/27 16:33:39;;;;;;;1.20;1.20;;;16.60;99.90;;;;;;4895182;29;20475;-69
2023/07/27 16:36:13;;;;;;;1.40;1.40;;;16.60;99.90;;;;;;4897977;29;20546;-70
2023/07/27 16:38:40;;;;;;;1.20;1.20;;;16.70;99.90;;;;;;4896693;29;20806;-69
2023/07/27 16:41:09;;;;;;;1.10;1.10;;;16.70;99.90;;;;;;4896111;29;20650;-73
2023/07/27 16:43:36;;;;;;;2.00;1.93;;;16.70;99.90;;;;;;4889307;29;20583;-69
2023/07/27 16:46:03;;;;;;;1.10;1.10;;;16.80;99.90;;;;;;4897207;29;20546;-69
2023/07/27 16:48:31;;;;;;;1.80;1.70;;;16.90;99.90;;;;;;4898402;29;20543;-69
2023/07/27 16:50:58;;;;;;;1.97;1.87;;;16.90;99.90;;;;;;4898391;29;20994;-69